Latest Weather Observations for Varanus Island

IDW60801

Issued at 1:23 pm WST Saturday 10 December 2022 (issued every 10 minutes, with the page automatically refreshed every 10 minutes)

About weather observations | Map of weather stations | Latest weather observations for WA | Other Formats
Station Details ID: 200100 Name: VARANUS ISLAND Lat: -20.66 Lon: 115.58 Height: 24.0 m
Data from the previous 72 hours. | See also: Recent months at Varanus Island
Date/Time
WST
Temp
°C
App
Temp
°C
Dew
Point
°C
Rel
Hum
%
Delta-T
°C
Wind Press
QNH
hPa
Press
MSL
hPa
Rain since
9am
mm
Dir  Spd
km/h
Gust
km/h
Spd
kts
Gust
kts
10/01:00pm 29.5 28.5 20.4 58 6.0 SSW 26 33 14 18 1010.4 1010.3 0.0
10/12:30pm 28.9 27.7 20.1 59 5.8 SSW 26 32 14 17 1010.6 1010.5 0.0
10/12:00pm 27.7 26.1 20.0 63 5.0 SSW 28 33 15 18 1011.1 1011.0 0.0
10/11:30am 27.6 26.3 19.9 63 5.0 SSW 26 30 14 16 1011.3 1011.2 0.0
10/11:00am 27.6 26.1 19.4 61 5.3 SSW 26 30 14 16 1011.6 1011.5 0.0
10/10:30am 27.3 25.3 19.1 61 5.3 SSW 28 33 15 18 1011.5 1011.4 0.0
10/10:00am 26.5 24.1 19.1 64 4.8 SSW 30 35 16 19 1011.5 1011.4 0.0
10/09:30am 26.6 23.8 19.0 63 4.9 SSW 32 37 17 20 1011.4 1011.3 0.0
10/09:00am 26.5 24.2 19.4 65 4.6 SSW 30 37 16 20 1011.5 1011.4 0.0
10/08:30am 26.1 23.4 19.2 65 4.4 SSW 32 39 17 21 1011.6 1011.5 0.0
10/08:00am 25.7 22.6 18.9 66 4.4 SSW 33 39 18 21 1011.4 1011.3 0.0
10/07:30am 25.4 22.3 18.8 67 4.2 SSW 33 41 18 22 1011.2 1011.1 0.0
10/07:00am 25.1 21.3 19.0 69 3.9 SSW 37 43 20 23 1010.9 1010.8 0.0
10/06:30am 24.7 21.3 19.1 71 3.6 SSW 35 43 19 23 1010.6 1010.5 0.0
10/06:00am 24.5 20.8 19.1 72 3.5 SSW 37 46 20 25 1010.3 1010.2 0.0
10/05:30am 24.4 20.5 18.8 71 3.6 SSW 37 44 20 24 1010.0 1009.9 0.0
10/05:00am 24.4 20.2 18.8 71 3.6 SSW 39 46 21 25 1009.6 1009.5 0.0
10/04:30am 24.5 20.5 19.3 73 3.3 SSW 39 46 21 25 1009.5 1009.4 0.0
10/04:00am 24.7 21.0 20.0 75 3.0 SSW 39 44 21 24 1009.3 1009.2 0.0
10/03:30am 24.6 20.6 20.1 76 2.9 SSW 41 44 22 24 1009.2 1009.1 0.0
10/03:00am 24.7 21.7 20.6 78 2.7 SSW 37 43 20 23 1009.3 1009.2 0.0
10/02:30am 24.7 22.0 21.2 81 2.3 SSW 37 44 20 24 1009.3 1009.2 0.0
10/02:00am 24.7 22.1 21.4 82 2.2 SW 37 43 20 23 1009.4 1009.3 0.0
10/01:30am 24.4 22.2 21.5 84 1.9 SW 35 41 19 22 1009.5 1009.4 0.0
10/01:00am 24.7 22.5 21.4 82 2.2 SW 35 41 19 22 1009.8 1009.7 0.0
10/12:30am 24.9 23.1 21.2 80 2.4 SW 32 39 17 21 1009.8 1009.7 0.0
10/12:00am 24.7 23.3 21.2 81 2.3 SW 30 33 16 18 1010.1 1010.0 0.0
 
Date/Time
WST
Temp
°C
App
Temp
°C
Dew
Point
°C
Rel
Hum
%
Delta-T
°C
Wind Press
QNH
hPa
Press
MSL
hPa
Rain since
9am
mm
Dir  Spd
km/h
Gust
km/h
Spd
kts
Gust
kts
09/11:30pm 24.8 23.5 21.3 81 2.3 WSW 30 33 16 18 1010.3 1010.2 0.0
09/11:00pm 25.1 23.4 21.4 80 2.5 WSW 32 35 17 19 1010.5 1010.4 0.0
09/10:30pm 25.1 23.5 20.8 77 2.8 WSW 30 32 16 17 1010.5 1010.4 0.0
09/10:00pm 25.2 23.7 20.9 77 2.8 WSW 30 35 16 19 1010.4 1010.3 0.0
09/09:30pm 25.3 23.2 20.5 75 3.1 WSW 32 37 17 20 1010.2 1010.1 0.0
09/09:00pm 25.2 23.2 20.7 76 3.0 WSW 32 37 17 20 1010.0 1009.9 0.0
09/08:30pm 25.2 22.1 20.5 75 3.1 WSW 37 43 20 23 1009.5 1009.4 0.0
09/08:00pm 25.4 22.6 20.2 73 3.4 WSW 35 43 19 23 1009.2 1009.1 0.0
09/07:30pm 25.7 23.1 19.8 70 3.8 WSW 33 39 18 21 1009.2 1009.1 0.0
09/07:00pm 26.4 23.7 19.3 65 4.6 WSW 32 37 17 20 1009.2 1009.1 0.0
09/06:30pm 27.0 24.8 18.8 60 5.3 WSW 28 33 15 18 1009.1 1009.0 0.0
09/06:00pm 27.4 25.3 18.9 59 5.5 SW 28 32 15 17 1008.8 1008.7 0.0
09/05:30pm 27.5 24.8 18.5 58 5.8 SW 30 35 16 19 1008.8 1008.7 0.0
09/05:00pm 27.3 24.5 19.1 61 5.3 SW 32 35 17 19 1008.8 1008.7 0.0
09/04:30pm 27.4 24.4 18.7 59 5.6 SW 32 35 17 19 1008.8 1008.7 0.0
09/04:00pm 27.4 23.7 18.4 58 5.8 SSW 35 41 19 22 1008.9 1008.8 0.0
09/03:30pm 27.9 24.1 18.0 55 6.3 SSW 35 41 19 22 1009.1 1009.0 0.0
09/03:00pm 27.8 24.6 18.5 57 6.0 SSW 33 39 18 21 1009.5 1009.4 0.0
09/02:30pm 27.8 24.4 19.1 59 5.6 SSW 35 39 19 21 1009.7 1009.6 0.0
09/02:00pm 26.9 23.5 19.0 62 5.1 SSW 35 41 19 22 1009.8 1009.7 0.0
09/01:30pm 26.7 23.6 18.8 62 5.1 SW 33 39 18 21 1010.0 1009.9 0.0
09/01:00pm 26.7 23.6 18.3 60 5.3 SW 32 37 17 20 1010.2 1010.1 0.0
09/12:30pm 27.5 25.7 20.3 65 4.7 SSW 30 35 16 19 1010.4 1010.3 0.0
09/12:00pm 27.4 26.0 20.5 66 4.5 SSW 28 35 15 19 1010.7 1010.6 0.0
09/11:30am 27.0 24.8 20.3 66 4.4 SSW 32 37 17 20 1011.0 1010.9 0.0
09/11:00am 26.5 24.1 19.9 67 4.3 SSW 32 39 17 21 1011.3 1011.2 0.0
09/10:30am 26.1 23.5 19.5 67 4.3 SSW 32 37 17 20 1011.4 1011.3 0.0
09/10:00am 25.9 23.3 19.8 69 4.0 SSW 33 39 18 21 1011.3 1011.2 0.0
09/09:30am 25.2 22.5 19.3 70 3.8 SSW 32 39 17 21 1011.2 1011.1 0.0
09/09:00am 24.8 21.7 19.6 73 3.4 SSW 35 39 19 21 1011.3 1011.2 0.0
09/08:30am 24.7 22.2 20.2 76 2.9 SSW 33 39 18 21 1011.1 1011.0 0.0
09/08:00am 24.2 21.1 19.7 76 2.9 SW 35 41 19 22 1010.9 1010.8 0.0
09/07:30am 24.1 21.5 20.0 78 2.7 SW 33 39 18 21 1010.7 1010.6 0.0
09/07:00am 23.9 21.4 20.2 80 2.4 SW 33 37 18 20 1010.4 1010.3 0.0
09/06:30am 23.5 21.2 20.6 84 1.9 WSW 33 39 18 21 1010.1 1010.0 0.0
09/06:00am 23.3 20.9 20.4 84 1.9 WSW 33 37 18 20 1009.9 1009.8 0.0
09/05:30am 23.4 21.2 20.7 85 1.8 SW 33 37 18 20 1009.4 1009.3 0.0
09/05:00am 23.3 20.9 20.4 84 1.9 SW 33 39 18 21 1009.2 1009.1 0.0
09/04:30am 23.3 20.6 20.4 84 1.9 SW 35 41 19 22 1008.9 1008.8 0.0
09/04:00am 23.4 21.2 20.7 85 1.8 SW 33 39 18 21 1008.7 1008.6 0.0
09/03:30am 23.4 21.1 20.5 84 1.9 SW 33 41 18 22 1008.6 1008.5 0.0
09/03:00am 23.6 21.0 20.7 84 1.9 WSW 35 39 19 21 1008.6 1008.5 0.0
09/02:30am 23.7 21.1 20.6 83 2.0 WSW 35 41 19 22 1008.6 1008.5 0.0
09/02:00am 23.7 21.0 20.4 82 2.1 WSW 35 39 19 21 1008.7 1008.6 0.0
09/01:30am 23.8 20.8 20.7 83 2.0 WSW 37 43 20 23 1008.8 1008.7 0.0
09/01:00am 23.9 20.4 20.4 81 2.3 WSW 39 44 21 24 1008.9 1008.8 0.0
09/12:30am 24.1 20.7 20.6 81 2.3 WSW 39 46 21 25 1009.2 1009.1 0.0
09/12:00am 24.3 20.4 20.4 79 2.5 WSW 41 46 22 25 1009.2 1009.1 0.0
 
Date/Time
WST
Temp
°C
App
Temp
°C
Dew
Point
°C
Rel
Hum
%
Delta-T
°C
Wind Press
QNH
hPa
Press
MSL
hPa
Rain since
9am
mm
Dir  Spd
km/h
Gust
km/h
Spd
kts
Gust
kts
08/11:30pm 24.5 20.8 20.8 80 2.4 WSW 41 46 22 25 1009.3 1009.2 0.0
08/11:00pm 24.6 21.3 20.9 80 2.4 WSW 39 50 21 27 1009.6 1009.5 0.0
08/10:30pm 24.5 20.0 21.0 81 2.3 WSW 46 52 25 28 1009.5 1009.4 0.0
08/10:00pm 24.5 20.1 21.2 82 2.2 WSW 46 54 25 29 1009.5 1009.4 0.0
08/09:30pm 24.6 20.6 21.3 82 2.2 WSW 44 50 24 27 1009.3 1009.2 0.0
08/09:00pm 24.6 20.5 20.7 79 2.6 W 43 50 23 27 1009.6 1009.5 0.0
08/08:30pm 24.7 21.1 21.0 80 2.4 W 41 48 22 26 1009.5 1009.4 0.0
08/08:00pm 24.7 21.0 20.8 79 2.6 W 41 50 22 27 1009.0 1008.9 0.0
08/07:30pm 24.8 21.1 20.7 78 2.7 W 41 48 22 26 1008.7 1008.6 0.0
08/07:00pm 25.1 22.5 20.6 76 2.9 W 35 43 19 23 1008.6 1008.5 0.0
08/06:30pm 25.7 22.8 20.0 71 3.7 W 35 41 19 22 1008.4 1008.3 0.0
08/06:00pm 26.0 23.1 20.1 70 3.9 W 35 39 19 21 1008.0 1007.9 0.0
08/05:30pm 26.6 23.4 20.2 68 4.2 W 37 43 20 23 1007.7 1007.6 0.0
08/05:00pm 27.3 23.3 19.4 62 5.1 W 39 46 21 25 1007.4 1007.3 0.0
08/04:30pm 28.1 24.7 19.1 58 5.8 W 35 41 19 22 1007.5 1007.4 0.0
08/04:00pm 27.8 24.2 19.3 60 5.5 W 37 41 20 22 1007.7 1007.6 0.0
08/03:30pm 28.1 25.6 20.1 61 5.2 W 33 39 18 21 1007.8 1007.7 0.0
08/03:00pm 28.8 27.2 20.8 62 5.3 W 30 35 16 19 1007.9 1007.8 0.0
08/02:30pm 28.8 28.1 20.3 60 5.6 SW 24 28 13 15 1008.2 1008.1 0.0
08/02:00pm 27.8 25.5 18.5 57 6.0 SW 28 33 15 18 1008.3 1008.2 0.0
08/01:30pm 26.5 23.0 17.8 58 5.5 SW 33 37 18 20 1008.5 1008.4 0.0
08/01:00pm 26.1 22.7 18.2 61 5.0 SW 33 41 18 22 1008.6 1008.5 0.0
08/12:30pm 26.4 22.9 18.8 63 4.9 SW 35 41 19 22 1008.9 1008.8 0.0
08/12:00pm 27.2 23.7 18.8 60 5.4 SSW 35 43 19 23 1009.4 1009.3 0.0
08/11:30am 26.8 23.0 18.9 62 5.1 SSW 37 46 20 25 1009.8 1009.7 0.0
08/11:00am 26.0 21.9 18.2 62 4.9 SSW 37 44 20 24 1010.1 1010.0 0.0
08/10:30am 25.6 21.5 18.3 64 4.6 SSW 37 46 20 25 1010.5 1010.4 0.0
08/10:00am 24.8 19.7 17.8 65 4.4 SSW 41 50 22 27 1010.5 1010.4 0.0
08/09:30am 25.0 20.6 18.4 66 4.2 SSW 39 50 21 27 1010.8 1010.7 0.0
08/09:00am 24.7 20.1 17.9 66 4.3 SSW 39 50 21 27 1011.0 1010.9 0.0
08/08:30am 24.5 19.1 18.0 67 4.1 SSW 43 52 23 28 1010.9 1010.8 0.0
08/08:00am 24.1 18.7 18.3 70 3.7 SSW 44 54 24 29 1010.6 1010.5 0.0
08/07:30am 23.8 18.2 17.8 69 3.7 SSW 44 54 24 29 1010.4 1010.3 0.0
08/07:00am 23.7 17.8 18.1 71 3.5 SSW 46 57 25 31 1010.1 1010.0 0.0
08/06:30am 23.4 17.6 18.3 73 3.2 SSW 46 54 25 29 1009.5 1009.4 0.0
08/06:00am 23.3 17.4 18.0 72 3.3 SSW 46 56 25 30 1009.2 1009.1 0.0
08/05:30am 23.3 17.5 18.4 74 3.1 SSW 46 56 25 30 1008.9 1008.8 0.0
08/05:00am 23.6 18.2 18.3 72 3.3 SSW 44 52 24 28 1008.7 1008.6 0.0
08/04:30am 23.5 18.0 17.7 70 3.6 SSW 43 50 23 27 1008.5 1008.4 0.0
08/04:00am 23.7 18.1 17.9 70 3.6 SW 44 52 24 28 1008.0 1007.9 0.0
08/03:30am 23.8 18.2 17.5 68 3.9 SW 43 52 23 28 1007.7 1007.6 0.0
08/03:00am 23.8 18.6 18.7 73 3.2 SSW 44 52 24 28 1007.5 1007.4 0.0
08/02:30am 23.9 18.4 19.0 74 3.1 SSW 46 54 25 29 1007.5 1007.4 0.0
08/02:00am 24.0 19.3 19.9 78 2.7 SW 44 48 24 26 1007.6 1007.5 0.0
08/01:30am 24.1 19.5 20.8 82 2.2 SW 46 54 25 29 1007.7 1007.6 0.0
08/01:00am 24.1 19.1 20.0 78 2.7 SW 46 52 25 28 1007.8 1007.7 0.0
08/12:30am 24.1 19.8 20.8 82 2.2 SW 44 50 24 27 1008.3 1008.2 0.0
08/12:00am 24.2 20.1 20.7 81 2.3 SW 43 48 23 26 1008.7 1008.6 0.0
 
Date/Time
WST
Temp
°C
App
Temp
°C
Dew
Point
°C
Rel
Hum
%
Delta-T
°C
Wind Press
QNH
hPa
Press
MSL
hPa
Rain since
9am
mm
Dir  Spd
km/h
Gust
km/h
Spd
kts
Gust
kts
07/11:30pm 24.2 20.6 20.9 82 2.2 WSW 41 50 22 27 1009.0 1008.9 0.0
07/11:00pm 24.4 21.6 21.7 85 1.8 WSW 39 48 21 26 1009.2 1009.1 0.0
07/10:30pm 24.4 21.0 21.3 83 2.0 WSW 41 46 22 25 1009.2 1009.1 0.0
07/10:00pm 24.3 20.8 21.2 83 2.0 WSW 41 46 22 25 1009.3 1009.2 0.0
07/09:30pm 24.5 20.6 21.4 83 2.0 WSW 44 50 24 27 1009.0 1008.9 0.0
07/09:00pm 24.6 21.3 21.5 83 2.1 WSW 41 46 22 25 1009.1 1009.0 0.0
07/08:30pm 24.7 21.0 21.6 83 2.1 WSW 43 48 23 26 1008.9 1008.8 0.0
07/08:00pm 24.7 20.8 21.4 82 2.2 WSW 44 50 24 27 1008.8 1008.7 0.0
07/07:30pm 24.8 20.8 21.3 81 2.3 W 44 50 24 27 1008.4 1008.3 0.0
07/07:00pm 25.1 22.0 21.2 79 2.6 W 39 46 21 25 1008.2 1008.1 0.0
07/06:30pm 25.7 22.4 20.9 75 3.2 W 39 44 21 24 1007.8 1007.7 0.0
07/06:00pm 26.3 23.9 21.1 73 3.4 W 35 41 19 22 1007.4 1007.3 0.0
07/05:30pm 26.8 23.7 20.4 68 4.2 W 37 43 20 23 1007.1 1007.0 0.0
07/05:00pm 27.2 24.0 19.5 62 5.0 W 35 39 19 21 1007.1 1007.0 0.0
07/04:30pm 27.5 24.8 19.6 62 5.1 W 33 39 18 21 1007.0 1006.9 0.0
07/04:00pm 27.6 25.2 20.4 65 4.7 W 33 39 18 21 1007.0 1006.9 0.0
07/03:30pm 27.6 25.2 19.9 63 5.0 W 32 37 17 20 1007.2 1007.1 0.0
07/03:00pm 27.7 25.3 20.3 64 4.9 W 33 39 18 21 1007.4 1007.3 0.0
07/02:30pm 27.5 25.0 20.1 64 4.8 W 33 39 18 21 1007.6 1007.5 0.0
07/02:00pm 27.3 24.3 19.9 64 4.8 W 35 43 19 23 1007.7 1007.6 0.0
07/01:30pm 27.5 25.0 20.1 64 4.8 W 33 39 18 21 1008.1 1008.0 0.0

Other formats

Comma delimited format used in spreadsheet applications
http://www.bom.gov.au/fwo/IDW60801/IDW60801.95303.axf

JavaScript Object Notation format (JSON) in row-major order
http://www.bom.gov.au/fwo/IDW60801/IDW60801.95303.json

Data quality

Most of these data are generated automatically and are frequently updated. Quality checks on data are not normally performed. It is possible for incorrect values to appear. Refer to information at About Latest Weather Observations and please check the disclaimer before using these data.